sensor_id;sensor_type;location;lat;lon;timestamp;P1;durP1;ratioP1;P2;durP2;ratioP2
73266;SDS011;61495;53.400;7.608;2022-08-01T00:00:31;8.65;;;4.22;;
73266;SDS011;61495;53.400;7.608;2022-08-01T00:02:57;9.60;;;5.07;;
73266;SDS011;61495;53.400;7.608;2022-08-01T00:05:22;6.97;;;4.68;;
73266;SDS011;61495;53.400;7.608;2022-08-01T00:07:48;7.55;;;4.47;;
73266;SDS011;61495;53.400;7.608;2022-08-01T00:10:14;6.55;;;3.83;;
73266;SDS011;61495;53.400;7.608;2022-08-01T00:12:41;5.75;;;3.97;;
73266;SDS011;61495;53.400;7.608;2022-08-01T00:15:08;5.78;;;3.00;;
73266;SDS011;61495;53.400;7.608;2022-08-01T00:17:35;7.43;;;4.10;;
73266;SDS011;61495;53.400;7.608;2022-08-01T00:20:01;6.18;;;3.90;;
73266;SDS011;61495;53.400;7.608;2022-08-01T00:22:28;7.25;;;3.45;;
73266;SDS011;61495;53.400;7.608;2022-08-01T00:24:55;5.43;;;3.60;;
73266;SDS011;61495;53.400;7.608;2022-08-01T00:27:21;4.97;;;2.88;;
73266;SDS011;61495;53.400;7.608;2022-08-01T00:29:46;5.47;;;3.22;;
73266;SDS011;61495;53.400;7.608;2022-08-01T00:32:11;6.63;;;4.10;;
73266;SDS011;61495;53.400;7.608;2022-08-01T00:34:37;7.55;;;3.75;;
73266;SDS011;61495;53.400;7.608;2022-08-01T00:37:02;6.65;;;3.92;;
73266;SDS011;61495;53.400;7.608;2022-08-01T00:39:27;7.43;;;3.80;;
73266;SDS011;61495;53.400;7.608;2022-08-01T00:41:53;7.35;;;4.13;;
73266;SDS011;61495;53.400;7.608;2022-08-01T00:44:18;5.60;;;3.22;;
73266;SDS011;61495;53.400;7.608;2022-08-01T00:46:44;5.35;;;3.55;;
73266;SDS011;61495;53.400;7.608;2022-08-01T00:49:09;5.30;;;3.55;;
73266;SDS011;61495;53.400;7.608;2022-08-01T00:51:34;5.68;;;3.30;;
73266;SDS011;61495;53.400;7.608;2022-08-01T00:54:00;5.05;;;3.00;;
73266;SDS011;61495;53.400;7.608;2022-08-01T00:56:26;4.78;;;2.80;;
73266;SDS011;61495;53.400;7.608;2022-08-01T00:58:53;4.25;;;2.15;;
73266;SDS011;61495;53.400;7.608;2022-08-01T01:01:20;4.35;;;2.60;;
73266;SDS011;61495;53.400;7.608;2022-08-01T01:03:47;4.00;;;1.80;;
73266;SDS011;61495;53.400;7.608;2022-08-01T01:08:45;4.50;;;1.83;;
73266;SDS011;61495;53.400;7.608;2022-08-01T01:11:21;3.55;;;1.58;;
73266;SDS011;61495;53.400;7.608;2022-08-01T01:14:00;4.35;;;1.80;;
73266;SDS011;61495;53.400;7.608;2022-08-01T01:16:32;3.65;;;1.70;;
73266;SDS011;61495;53.400;7.608;2022-08-01T01:19:01;4.28;;;2.10;;
73266;SDS011;61495;53.400;7.608;2022-08-01T01:24:16;3.53;;;1.92;;
73266;SDS011;61495;53.400;7.608;2022-08-01T01:27:01;4.15;;;2.20;;
73266;SDS011;61495;53.400;7.608;2022-08-01T01:29:38;4.18;;;1.92;;
73266;SDS011;61495;53.400;7.608;2022-08-01T01:32:13;5.47;;;2.28;;
73266;SDS011;61495;53.400;7.608;2022-08-01T01:34:43;4.97;;;2.13;;
73266;SDS011;61495;53.400;7.608;2022-08-01T01:37:17;5.28;;;2.28;;
73266;SDS011;61495;53.400;7.608;2022-08-01T01:39:46;4.03;;;2.42;;
73266;SDS011;61495;53.400;7.608;2022-08-01T01:42:14;5.53;;;2.35;;
73266;SDS011;61495;53.400;7.608;2022-08-01T01:44:41;4.70;;;2.40;;
73266;SDS011;61495;53.400;7.608;2022-08-01T01:47:09;4.32;;;2.28;;
73266;SDS011;61495;53.400;7.608;2022-08-01T01:49:37;3.90;;;2.22;;
73266;SDS011;61495;53.400;7.608;2022-08-01T01:52:06;4.13;;;1.90;;
73266;SDS011;61495;53.400;7.608;2022-08-01T01:54:35;6.63;;;2.85;;
73266;SDS011;61495;53.400;7.608;2022-08-01T01:57:05;5.55;;;2.35;;
73266;SDS011;61495;53.400;7.608;2022-08-01T01:59:32;4.97;;;2.35;;
73266;SDS011;61495;53.400;7.608;2022-08-01T02:02:01;5.97;;;2.17;;
73266;SDS011;61495;53.400;7.608;2022-08-01T02:04:29;6.40;;;2.00;;
73266;SDS011;61495;53.400;7.608;2022-08-01T02:06:55;4.82;;;2.30;;
73266;SDS011;61495;53.400;7.608;2022-08-01T02:09:23;5.05;;;2.10;;
73266;SDS011;61495;53.400;7.608;2022-08-01T02:11:50;4.97;;;1.48;;
73266;SDS011;61495;53.400;7.608;2022-08-01T02:14:17;4.63;;;1.80;;
73266;SDS011;61495;53.400;7.608;2022-08-01T02:16:47;3.60;;;1.83;;
73266;SDS011;61495;53.400;7.608;2022-08-01T02:24:24;7.05;;;1.67;;
73266;SDS011;61495;53.400;7.608;2022-08-01T02:27:07;6.20;;;2.17;;
73266;SDS011;61495;53.400;7.608;2022-08-01T02:32:38;6.90;;;2.28;;
73266;SDS011;61495;53.400;7.608;2022-08-01T02:35:09;4.18;;;2.00;;
73266;SDS011;61495;53.400;7.608;2022-08-01T02:37:39;3.72;;;1.73;;
73266;SDS011;61495;53.400;7.608;2022-08-01T02:40:06;5.95;;;2.08;;
73266;SDS011;61495;53.400;7.608;2022-08-01T02:42:35;7.20;;;1.98;;
73266;SDS011;61495;53.400;7.608;2022-08-01T02:45:03;4.50;;;2.13;;
73266;SDS011;61495;53.400;7.608;2022-08-01T02:47:29;4.65;;;1.70;;
73266;SDS011;61495;53.400;7.608;2022-08-01T02:49:57;7.53;;;1.88;;
73266;SDS011;61495;53.400;7.608;2022-08-01T02:52:25;6.47;;;2.25;;
73266;SDS011;61495;53.400;7.608;2022-08-01T02:54:56;6.18;;;2.00;;
73266;SDS011;61495;53.400;7.608;2022-08-01T02:57:23;6.50;;;1.50;;
73266;SDS011;61495;53.400;7.608;2022-08-01T02:59:51;5.85;;;1.80;;
73266;SDS011;61495;53.400;7.608;2022-08-01T03:02:18;8.02;;;2.40;;
73266;SDS011;61495;53.400;7.608;2022-08-01T03:04:45;5.60;;;1.90;;
73266;SDS011;61495;53.400;7.608;2022-08-01T03:07:12;5.55;;;1.70;;
73266;SDS011;61495;53.400;7.608;2022-08-01T03:09:40;5.40;;;1.80;;
73266;SDS011;61495;53.400;7.608;2022-08-01T03:12:11;5.95;;;2.00;;
73266;SDS011;61495;53.400;7.608;2022-08-01T03:14:41;5.28;;;2.30;;
73266;SDS011;61495;53.400;7.608;2022-08-01T03:17:08;5.25;;;1.65;;
73266;SDS011;61495;53.400;7.608;2022-08-01T03:19:34;7.65;;;2.25;;
73266;SDS011;61495;53.400;7.608;2022-08-01T03:22:02;7.05;;;2.20;;
73266;SDS011;61495;53.400;7.608;2022-08-01T03:24:36;6.15;;;1.70;;
73266;SDS011;61495;53.400;7.608;2022-08-01T03:27:04;5.80;;;1.90;;
73266;SDS011;61495;53.400;7.608;2022-08-01T03:29:32;6.00;;;2.20;;
73266;SDS011;61495;53.400;7.608;2022-08-01T03:31:59;6.18;;;2.40;;
73266;SDS011;61495;53.400;7.608;2022-08-01T03:34:25;7.40;;;1.75;;
73266;SDS011;61495;53.400;7.608;2022-08-01T03:39:20;5.60;;;2.08;;
73266;SDS011;61495;53.400;7.608;2022-08-01T03:41:51;5.93;;;1.70;;
73266;SDS011;61495;53.400;7.608;2022-08-01T03:44:23;8.13;;;2.22;;
73266;SDS011;61495;53.400;7.608;2022-08-01T03:46:56;5.68;;;1.60;;
73266;SDS011;61495;53.400;7.608;2022-08-01T03:49:27;10.23;;;2.50;;
73266;SDS011;61495;53.400;7.608;2022-08-01T03:51:55;6.07;;;1.77;;
73266;SDS011;61495;53.400;7.608;2022-08-01T03:54:24;5.82;;;1.90;;
73266;SDS011;61495;53.400;7.608;2022-08-01T03:56:52;7.00;;;2.40;;
73266;SDS011;61495;53.400;7.608;2022-08-01T03:59:19;6.43;;;2.10;;
73266;SDS011;61495;53.400;7.608;2022-08-01T04:01:45;7.75;;;2.50;;
73266;SDS011;61495;53.400;7.608;2022-08-01T04:04:12;7.32;;;2.78;;
73266;SDS011;61495;53.400;7.608;2022-08-01T04:06:38;5.82;;;2.63;;
73266;SDS011;61495;53.400;7.608;2022-08-01T04:09:04;6.80;;;2.03;;
73266;SDS011;61495;53.400;7.608;2022-08-01T04:11:32;6.93;;;2.22;;
73266;SDS011;61495;53.400;7.608;2022-08-01T04:13:57;7.60;;;2.30;;
73266;SDS011;61495;53.400;7.608;2022-08-01T04:16:23;7.65;;;2.05;;
73266;SDS011;61495;53.400;7.608;2022-08-01T04:18:48;7.43;;;2.63;;
73266;SDS011;61495;53.400;7.608;2022-08-01T04:21:14;6.50;;;2.35;;
73266;SDS011;61495;53.400;7.608;2022-08-01T04:23:43;8.27;;;2.00;;
73266;SDS011;61495;53.400;7.608;2022-08-01T04:26:11;5.13;;;2.03;;
73266;SDS011;61495;53.400;7.608;2022-08-01T04:28:39;10.80;;;2.40;;
73266;SDS011;61495;53.400;7.608;2022-08-01T04:31:08;6.95;;;1.95;;
73266;SDS011;61495;53.400;7.608;2022-08-01T04:33:34;6.75;;;1.60;;
73266;SDS011;61495;53.400;7.608;2022-08-01T04:36:01;7.25;;;2.30;;
73266;SDS011;61495;53.400;7.608;2022-08-01T04:38:29;5.45;;;2.25;;
73266;SDS011;61495;53.400;7.608;2022-08-01T04:40:56;6.70;;;1.80;;
73266;SDS011;61495;53.400;7.608;2022-08-01T04:43:23;9.20;;;2.60;;
73266;SDS011;61495;53.400;7.608;2022-08-01T04:45:48;8.55;;;2.20;;
73266;SDS011;61495;53.400;7.608;2022-08-01T04:48:16;6.38;;;1.90;;
73266;SDS011;61495;53.400;7.608;2022-08-01T04:50:44;5.60;;;1.77;;
73266;SDS011;61495;53.400;7.608;2022-08-01T04:53:14;7.28;;;2.30;;
73266;SDS011;61495;53.400;7.608;2022-08-01T04:55:43;6.82;;;1.95;;
73266;SDS011;61495;53.400;7.608;2022-08-01T04:58:10;9.77;;;2.53;;
73266;SDS011;61495;53.400;7.608;2022-08-01T05:00:37;7.30;;;1.88;;
73266;SDS011;61495;53.400;7.608;2022-08-01T05:03:03;7.13;;;2.20;;
73266;SDS011;61495;53.400;7.608;2022-08-01T05:05:28;7.40;;;2.13;;
73266;SDS011;61495;53.400;7.608;2022-08-01T05:07:55;7.55;;;1.98;;
73266;SDS011;61495;53.400;7.608;2022-08-01T05:10:20;10.50;;;2.55;;
73266;SDS011;61495;53.400;7.608;2022-08-01T05:12:46;7.45;;;2.25;;
73266;SDS011;61495;53.400;7.608;2022-08-01T05:15:11;10.35;;;2.40;;
73266;SDS011;61495;53.400;7.608;2022-08-01T05:17:37;9.75;;;2.45;;
73266;SDS011;61495;53.400;7.608;2022-08-01T05:20:02;8.93;;;2.05;;
73266;SDS011;61495;53.400;7.608;2022-08-01T05:22:31;9.55;;;2.55;;
73266;SDS011;61495;53.400;7.608;2022-08-01T05:24:57;14.35;;;3.15;;
73266;SDS011;61495;53.400;7.608;2022-08-01T05:27:24;10.63;;;2.50;;
73266;SDS011;61495;53.400;7.608;2022-08-01T05:29:50;11.55;;;2.17;;
73266;SDS011;61495;53.400;7.608;2022-08-01T05:32:15;9.73;;;2.28;;
73266;SDS011;61495;53.400;7.608;2022-08-01T05:34:40;9.93;;;2.33;;
73266;SDS011;61495;53.400;7.608;2022-08-01T05:37:06;10.68;;;3.03;;
73266;SDS011;61495;53.400;7.608;2022-08-01T05:39:32;11.25;;;2.47;;
73266;SDS011;61495;53.400;7.608;2022-08-01T05:41:57;11.85;;;2.83;;
73266;SDS011;61495;53.400;7.608;2022-08-01T05:44:23;9.75;;;2.80;;
73266;SDS011;61495;53.400;7.608;2022-08-01T05:46:49;7.75;;;2.83;;
73266;SDS011;61495;53.400;7.608;2022-08-01T05:49:14;7.90;;;2.40;;
73266;SDS011;61495;53.400;7.608;2022-08-01T05:51:39;12.02;;;2.72;;
73266;SDS011;61495;53.400;7.608;2022-08-01T05:54:05;12.27;;;2.78;;
73266;SDS011;61495;53.400;7.608;2022-08-01T05:56:30;10.15;;;3.30;;
73266;SDS011;61495;53.400;7.608;2022-08-01T05:58:56;10.38;;;2.55;;
73266;SDS011;61495;53.400;7.608;2022-08-01T06:01:21;8.40;;;2.03;;
73266;SDS011;61495;53.400;7.608;2022-08-01T06:03:47;11.52;;;2.90;;
73266;SDS011;61495;53.400;7.608;2022-08-01T06:06:12;8.10;;;2.70;;
73266;SDS011;61495;53.400;7.608;2022-08-01T06:08:39;7.88;;;2.75;;
73266;SDS011;61495;53.400;7.608;2022-08-01T06:11:04;11.38;;;3.15;;
73266;SDS011;61495;53.400;7.608;2022-08-01T06:13:30;11.10;;;2.72;;
73266;SDS011;61495;53.400;7.608;2022-08-01T06:15:55;11.43;;;3.00;;
73266;SDS011;61495;53.400;7.608;2022-08-01T06:18:21;6.32;;;2.60;;
73266;SDS011;61495;53.400;7.608;2022-08-01T06:20:47;9.75;;;2.35;;
73266;SDS011;61495;53.400;7.608;2022-08-01T06:23:12;8.60;;;2.58;;
73266;SDS011;61495;53.400;7.608;2022-08-01T06:25:40;9.68;;;2.85;;
73266;SDS011;61495;53.400;7.608;2022-08-01T06:28:05;10.32;;;2.85;;
73266;SDS011;61495;53.400;7.608;2022-08-01T06:30:31;10.10;;;2.97;;
73266;SDS011;61495;53.400;7.608;2022-08-01T06:32:56;9.43;;;2.28;;
73266;SDS011;61495;53.400;7.608;2022-08-01T06:35:23;10.07;;;3.25;;
73266;SDS011;61495;53.400;7.608;2022-08-01T06:37:49;10.25;;;2.63;;
73266;SDS011;61495;53.400;7.608;2022-08-01T06:40:14;8.05;;;2.97;;
73266;SDS011;61495;53.400;7.608;2022-08-01T06:42:40;13.27;;;3.17;;
73266;SDS011;61495;53.400;7.608;2022-08-01T06:45:07;10.65;;;3.28;;
73266;SDS011;61495;53.400;7.608;2022-08-01T06:47:36;12.73;;;2.83;;
73266;SDS011;61495;53.400;7.608;2022-08-01T06:50:03;9.18;;;2.67;;
73266;SDS011;61495;53.400;7.608;2022-08-01T06:52:30;9.25;;;2.58;;
73266;SDS011;61495;53.400;7.608;2022-08-01T06:54:55;9.45;;;3.03;;
73266;SDS011;61495;53.400;7.608;2022-08-01T06:57:21;9.40;;;2.30;;
73266;SDS011;61495;53.400;7.608;2022-08-01T06:59:46;12.85;;;2.47;;
73266;SDS011;61495;53.400;7.608;2022-08-01T07:02:12;9.10;;;2.80;;
73266;SDS011;61495;53.400;7.608;2022-08-01T07:04:37;13.48;;;2.42;;
73266;SDS011;61495;53.400;7.608;2022-08-01T07:07:03;7.85;;;2.40;;
73266;SDS011;61495;53.400;7.608;2022-08-01T07:09:29;10.13;;;2.53;;
73266;SDS011;61495;53.400;7.608;2022-08-01T07:11:54;10.35;;;2.53;;
73266;SDS011;61495;53.400;7.608;2022-08-01T07:14:21;7.82;;;2.75;;
73266;SDS011;61495;53.400;7.608;2022-08-01T07:16:47;11.35;;;2.28;;
73266;SDS011;61495;53.400;7.608;2022-08-01T07:19:13;8.90;;;2.08;;
73266;SDS011;61495;53.400;7.608;2022-08-01T07:21:39;11.43;;;2.45;;
73266;SDS011;61495;53.400;7.608;2022-08-01T07:24:05;8.18;;;2.33;;
73266;SDS011;61495;53.400;7.608;2022-08-01T07:26:34;10.02;;;2.25;;
73266;SDS011;61495;53.400;7.608;2022-08-01T07:29:00;10.15;;;2.25;;
73266;SDS011;61495;53.400;7.608;2022-08-01T07:31:25;9.45;;;2.45;;
73266;SDS011;61495;53.400;7.608;2022-08-01T07:33:51;9.20;;;1.65;;
73266;SDS011;61495;53.400;7.608;2022-08-01T07:36:17;11.10;;;2.45;;
73266;SDS011;61495;53.400;7.608;2022-08-01T07:38:43;6.88;;;2.05;;
73266;SDS011;61495;53.400;7.608;2022-08-01T07:41:08;10.57;;;1.80;;
73266;SDS011;61495;53.400;7.608;2022-08-01T07:43:34;8.10;;;2.08;;
73266;SDS011;61495;53.400;7.608;2022-08-01T07:46:01;10.50;;;2.13;;
73266;SDS011;61495;53.400;7.608;2022-08-01T07:48:27;8.88;;;2.30;;
73266;SDS011;61495;53.400;7.608;2022-08-01T07:50:52;11.23;;;2.38;;
73266;SDS011;61495;53.400;7.608;2022-08-01T07:53:18;11.40;;;2.42;;
73266;SDS011;61495;53.400;7.608;2022-08-01T07:55:43;11.75;;;2.60;;
73266;SDS011;61495;53.400;7.608;2022-08-01T07:58:09;7.53;;;1.90;;
73266;SDS011;61495;53.400;7.608;2022-08-01T08:00:34;7.00;;;1.77;;
73266;SDS011;61495;53.400;7.608;2022-08-01T08:02:59;7.63;;;2.20;;
73266;SDS011;61495;53.400;7.608;2022-08-01T08:05:28;9.48;;;2.88;;
73266;SDS011;61495;53.400;7.608;2022-08-01T08:07:53;5.97;;;2.22;;
73266;SDS011;61495;53.400;7.608;2022-08-01T08:10:19;7.82;;;1.98;;
73266;SDS011;61495;53.400;7.608;2022-08-01T08:12:44;9.85;;;1.98;;
73266;SDS011;61495;53.400;7.608;2022-08-01T08:15:11;11.85;;;2.00;;
73266;SDS011;61495;53.400;7.608;2022-08-01T08:17:38;9.15;;;1.80;;
73266;SDS011;61495;53.400;7.608;2022-08-01T08:20:05;7.07;;;1.80;;
73266;SDS011;61495;53.400;7.608;2022-08-01T08:22:32;6.43;;;2.00;;
73266;SDS011;61495;53.400;7.608;2022-08-01T08:24:57;6.55;;;1.80;;
73266;SDS011;61495;53.400;7.608;2022-08-01T08:27:22;6.55;;;2.10;;
73266;SDS011;61495;53.400;7.608;2022-08-01T08:29:48;6.78;;;1.60;;
73266;SDS011;61495;53.400;7.608;2022-08-01T08:32:13;9.43;;;1.85;;
73266;SDS011;61495;53.400;7.608;2022-08-01T08:34:39;8.38;;;1.98;;
73266;SDS011;61495;53.400;7.608;2022-08-01T08:37:05;7.55;;;1.45;;
73266;SDS011;61495;53.400;7.608;2022-08-01T08:39:30;6.65;;;1.88;;
73266;SDS011;61495;53.400;7.608;2022-08-01T08:41:58;9.32;;;2.30;;
73266;SDS011;61495;53.400;7.608;2022-08-01T08:44:25;8.23;;;1.60;;
73266;SDS011;61495;53.400;7.608;2022-08-01T08:46:51;9.20;;;1.73;;
73266;SDS011;61495;53.400;7.608;2022-08-01T08:49:21;10.75;;;2.00;;
73266;SDS011;61495;53.400;7.608;2022-08-01T08:51:49;7.95;;;1.80;;
73266;SDS011;61495;53.400;7.608;2022-08-01T08:54:17;12.25;;;2.53;;
73266;SDS011;61495;53.400;7.608;2022-08-01T08:56:45;6.30;;;1.50;;
73266;SDS011;61495;53.400;7.608;2022-08-01T08:59:12;7.20;;;1.52;;
73266;SDS011;61495;53.400;7.608;2022-08-01T09:01:41;6.95;;;1.50;;
73266;SDS011;61495;53.400;7.608;2022-08-01T09:04:07;8.50;;;1.58;;
73266;SDS011;61495;53.400;7.608;2022-08-01T09:06:32;10.20;;;2.25;;
73266;SDS011;61495;53.400;7.608;2022-08-01T09:08:58;12.23;;;1.88;;
73266;SDS011;61495;53.400;7.608;2022-08-01T09:11:24;10.75;;;2.13;;
73266;SDS011;61495;53.400;7.608;2022-08-01T09:14:07;7.63;;;1.83;;
73266;SDS011;61495;53.400;7.608;2022-08-01T09:16:38;8.98;;;1.67;;
73266;SDS011;61495;53.400;7.608;2022-08-01T09:19:08;8.05;;;1.85;;
73266;SDS011;61495;53.400;7.608;2022-08-01T09:22:00;7.22;;;1.88;;
73266;SDS011;61495;53.400;7.608;2022-08-01T09:24:28;6.53;;;1.70;;
73266;SDS011;61495;53.400;7.608;2022-08-01T09:26:55;7.55;;;2.10;;
73266;SDS011;61495;53.400;7.608;2022-08-01T09:29:22;6.70;;;1.67;;
73266;SDS011;61495;53.400;7.608;2022-08-01T09:31:49;6.28;;;2.10;;
73266;SDS011;61495;53.400;7.608;2022-08-01T09:34:16;7.00;;;2.40;;
73266;SDS011;61495;53.400;7.608;2022-08-01T09:36:54;5.25;;;1.58;;
73266;SDS011;61495;53.400;7.608;2022-08-01T09:39:30;7.82;;;1.95;;
73266;SDS011;61495;53.400;7.608;2022-08-01T09:42:18;7.05;;;2.03;;
73266;SDS011;61495;53.400;7.608;2022-08-01T09:44:45;8.07;;;1.77;;
73266;SDS011;61495;53.400;7.608;2022-08-01T09:47:12;8.85;;;1.85;;
73266;SDS011;61495;53.400;7.608;2022-08-01T09:49:39;7.95;;;1.90;;
73266;SDS011;61495;53.400;7.608;2022-08-01T09:54:40;11.40;;;1.65;;
73266;SDS011;61495;53.400;7.608;2022-08-01T09:57:13;6.10;;;1.70;;
73266;SDS011;61495;53.400;7.608;2022-08-01T09:59:44;5.80;;;1.77;;
73266;SDS011;61495;53.400;7.608;2022-08-01T10:02:11;6.03;;;1.73;;
73266;SDS011;61495;53.400;7.608;2022-08-01T10:04:49;7.28;;;2.00;;
73266;SDS011;61495;53.400;7.608;2022-08-01T10:09:42;5.43;;;1.98;;
73266;SDS011;61495;53.400;7.608;2022-08-01T10:12:12;7.57;;;1.58;;
73266;SDS011;61495;53.400;7.608;2022-08-01T10:14:39;5.30;;;1.80;;
73266;SDS011;61495;53.400;7.608;2022-08-01T10:17:07;7.18;;;1.60;;
73266;SDS011;61495;53.400;7.608;2022-08-01T10:19:34;7.03;;;1.52;;
73266;SDS011;61495;53.400;7.608;2022-08-01T10:22:00;9.88;;;1.65;;
73266;SDS011;61495;53.400;7.608;2022-08-01T10:24:29;7.88;;;1.52;;
73266;SDS011;61495;53.400;7.608;2022-08-01T10:27:02;8.27;;;2.53;;
73266;SDS011;61495;53.400;7.608;2022-08-01T10:29:40;9.52;;;1.92;;
73266;SDS011;61495;53.400;7.608;2022-08-01T10:32:08;4.75;;;1.55;;
73266;SDS011;61495;53.400;7.608;2022-08-01T10:34:34;6.68;;;1.67;;
73266;SDS011;61495;53.400;7.608;2022-08-01T10:37:01;4.15;;;1.52;;
73266;SDS011;61495;53.400;7.608;2022-08-01T10:39:27;5.60;;;1.10;;
73266;SDS011;61495;53.400;7.608;2022-08-01T10:41:55;6.38;;;1.50;;
73266;SDS011;61495;53.400;7.608;2022-08-01T10:44:20;5.75;;;1.85;;
73266;SDS011;61495;53.400;7.608;2022-08-01T10:46:48;5.60;;;1.45;;
73266;SDS011;61495;53.400;7.608;2022-08-01T10:49:17;4.53;;;1.20;;
73266;SDS011;61495;53.400;7.608;2022-08-01T10:51:47;4.97;;;1.48;;
73266;SDS011;61495;53.400;7.608;2022-08-01T10:54:13;6.95;;;1.35;;
73266;SDS011;61495;53.400;7.608;2022-08-01T10:56:48;7.22;;;1.83;;
73266;SDS011;61495;53.400;7.608;2022-08-01T10:59:20;6.80;;;1.60;;
73266;SDS011;61495;53.400;7.608;2022-08-01T11:02:03;6.85;;;1.25;;
73266;SDS011;61495;53.400;7.608;2022-08-01T11:04:51;5.68;;;1.67;;
73266;SDS011;61495;53.400;7.608;2022-08-01T11:07:21;4.65;;;1.45;;
73266;SDS011;61495;53.400;7.608;2022-08-01T11:10:03;8.50;;;1.80;;
73266;SDS011;61495;53.400;7.608;2022-08-01T11:12:37;6.18;;;1.40;;
73266;SDS011;61495;53.400;7.608;2022-08-01T11:17:35;6.32;;;2.05;;
73266;SDS011;61495;53.400;7.608;2022-08-01T11:20:06;6.10;;;1.70;;
73266;SDS011;61495;53.400;7.608;2022-08-01T11:25:24;5.28;;;1.38;;
73266;SDS011;61495;53.400;7.608;2022-08-01T11:28:16;7.82;;;1.77;;
73266;SDS011;61495;53.400;7.608;2022-08-01T11:30:51;5.30;;;1.63;;
73266;SDS011;61495;53.400;7.608;2022-08-01T11:33:18;7.43;;;1.75;;
73266;SDS011;61495;53.400;7.608;2022-08-01T11:38:36;5.82;;;2.03;;
73266;SDS011;61495;53.400;7.608;2022-08-01T11:52:30;7.88;;;1.73;;
73266;SDS011;61495;53.400;7.608;2022-08-01T11:57:30;6.75;;;1.40;;
73266;SDS011;61495;53.400;7.608;2022-08-01T12:00:00;4.53;;;1.35;;
73266;SDS011;61495;53.400;7.608;2022-08-01T12:02:30;4.68;;;1.38;;
73266;SDS011;61495;53.400;7.608;2022-08-01T12:05:03;5.80;;;1.63;;
73266;SDS011;61495;53.400;7.608;2022-08-01T12:07:29;5.55;;;2.00;;
73266;SDS011;61495;53.400;7.608;2022-08-01T12:09:57;3.95;;;1.40;;
73266;SDS011;61495;53.400;7.608;2022-08-01T12:12:23;4.05;;;1.42;;
73266;SDS011;61495;53.400;7.608;2022-08-01T12:14:59;4.65;;;1.42;;
73266;SDS011;61495;53.400;7.608;2022-08-01T12:17:33;5.60;;;1.63;;
73266;SDS011;61495;53.400;7.608;2022-08-01T12:20:04;5.93;;;1.55;;
73266;SDS011;61495;53.400;7.608;2022-08-01T12:22:34;4.18;;;1.48;;
73266;SDS011;61495;53.400;7.608;2022-08-01T12:25:07;4.07;;;1.40;;
73266;SDS011;61495;53.400;7.608;2022-08-01T12:27:34;6.47;;;2.13;;
73266;SDS011;61495;53.400;7.608;2022-08-01T12:30:00;5.38;;;1.52;;
73266;SDS011;61495;53.400;7.608;2022-08-01T12:34:56;3.92;;;1.35;;
73266;SDS011;61495;53.400;7.608;2022-08-01T12:37:25;4.88;;;1.10;;
73266;SDS011;61495;53.400;7.608;2022-08-01T12:39:51;5.20;;;1.52;;
73266;SDS011;61495;53.400;7.608;2022-08-01T12:42:16;7.57;;;1.77;;
73266;SDS011;61495;53.400;7.608;2022-08-01T12:44:43;5.63;;;1.30;;
73266;SDS011;61495;53.400;7.608;2022-08-01T12:47:12;4.22;;;1.40;;
73266;SDS011;61495;53.400;7.608;2022-08-01T12:49:38;7.82;;;1.38;;
73266;SDS011;61495;53.400;7.608;2022-08-01T12:52:06;5.90;;;1.20;;
73266;SDS011;61495;53.400;7.608;2022-08-01T12:54:59;5.97;;;1.60;;
73266;SDS011;61495;53.400;7.608;2022-08-01T12:57:26;6.78;;;1.58;;
73266;SDS011;61495;53.400;7.608;2022-08-01T12:59:52;6.05;;;1.60;;
73266;SDS011;61495;53.400;7.608;2022-08-01T13:02:18;4.80;;;1.48;;
73266;SDS011;61495;53.400;7.608;2022-08-01T13:04:50;4.60;;;1.58;;
73266;SDS011;61495;53.400;7.608;2022-08-01T13:07:16;5.68;;;1.50;;
73266;SDS011;61495;53.400;7.608;2022-08-01T13:09:49;6.50;;;1.73;;
73266;SDS011;61495;53.400;7.608;2022-08-01T13:12:15;6.32;;;2.83;;
73266;SDS011;61495;53.400;7.608;2022-08-01T13:14:41;3.40;;;1.27;;
73266;SDS011;61495;53.400;7.608;2022-08-01T13:17:07;4.60;;;1.50;;
73266;SDS011;61495;53.400;7.608;2022-08-01T13:19:44;4.57;;;1.58;;
73266;SDS011;61495;53.400;7.608;2022-08-01T13:22:10;6.47;;;1.60;;
73266;SDS011;61495;53.400;7.608;2022-08-01T13:24:35;4.03;;;1.50;;
73266;SDS011;61495;53.400;7.608;2022-08-01T13:27:02;4.93;;;1.40;;
73266;SDS011;61495;53.400;7.608;2022-08-01T13:29:33;2.85;;;1.02;;
73266;SDS011;61495;53.400;7.608;2022-08-01T13:32:00;5.28;;;1.63;;
73266;SDS011;61495;53.400;7.608;2022-08-01T13:34:40;5.50;;;1.60;;
73266;SDS011;61495;53.400;7.608;2022-08-01T13:37:05;3.90;;;1.40;;
73266;SDS011;61495;53.400;7.608;2022-08-01T13:39:31;6.40;;;1.40;;
73266;SDS011;61495;53.400;7.608;2022-08-01T13:42:06;5.50;;;1.50;;
73266;SDS011;61495;53.400;7.608;2022-08-01T13:44:38;4.10;;;1.17;;
73266;SDS011;61495;53.400;7.608;2022-08-01T13:47:04;3.83;;;1.30;;
73266;SDS011;61495;53.400;7.608;2022-08-01T13:49:30;4.60;;;1.80;;
73266;SDS011;61495;53.400;7.608;2022-08-01T13:51:55;4.65;;;1.63;;
73266;SDS011;61495;53.400;7.608;2022-08-01T13:54:21;5.82;;;1.30;;
73266;SDS011;61495;53.400;7.608;2022-08-01T13:56:48;3.83;;;1.10;;
73266;SDS011;61495;53.400;7.608;2022-08-01T13:59:14;3.55;;;1.20;;
73266;SDS011;61495;53.400;7.608;2022-08-01T14:01:39;4.72;;;1.55;;
73266;SDS011;61495;53.400;7.608;2022-08-01T14:04:05;4.95;;;1.30;;
73266;SDS011;61495;53.400;7.608;2022-08-01T14:06:31;6.40;;;2.00;;
73266;SDS011;61495;53.400;7.608;2022-08-01T14:08:57;4.45;;;1.50;;
73266;SDS011;61495;53.400;7.608;2022-08-01T14:11:22;4.38;;;1.40;;
73266;SDS011;61495;53.400;7.608;2022-08-01T14:13:48;6.03;;;1.48;;
73266;SDS011;61495;53.400;7.608;2022-08-01T14:16:13;4.20;;;1.25;;
73266;SDS011;61495;53.400;7.608;2022-08-01T14:18:39;6.45;;;1.35;;
73266;SDS011;61495;53.400;7.608;2022-08-01T14:21:05;4.85;;;1.50;;
73266;SDS011;61495;53.400;7.608;2022-08-01T14:23:31;5.45;;;1.60;;
73266;SDS011;61495;53.400;7.608;2022-08-01T14:25:56;5.35;;;1.75;;
73266;SDS011;61495;53.400;7.608;2022-08-01T14:28:21;5.22;;;1.73;;
73266;SDS011;61495;53.400;7.608;2022-08-01T14:30:48;5.75;;;1.52;;
73266;SDS011;61495;53.400;7.608;2022-08-01T14:33:13;6.75;;;1.58;;
73266;SDS011;61495;53.400;7.608;2022-08-01T14:35:39;5.43;;;1.33;;
73266;SDS011;61495;53.400;7.608;2022-08-01T14:38:06;4.50;;;1.50;;
73266;SDS011;61495;53.400;7.608;2022-08-01T14:40:32;5.70;;;1.52;;
73266;SDS011;61495;53.400;7.608;2022-08-01T14:42:58;4.13;;;1.20;;
73266;SDS011;61495;53.400;7.608;2022-08-01T14:45:25;4.22;;;1.30;;
73266;SDS011;61495;53.400;7.608;2022-08-01T14:47:52;7.20;;;1.50;;
73266;SDS011;61495;53.400;7.608;2022-08-01T14:50:17;4.72;;;1.10;;
73266;SDS011;61495;53.400;7.608;2022-08-01T14:52:43;4.90;;;1.40;;
73266;SDS011;61495;53.400;7.608;2022-08-01T14:55:09;5.85;;;1.70;;
73266;SDS011;61495;53.400;7.608;2022-08-01T14:57:36;4.10;;;1.40;;
73266;SDS011;61495;53.400;7.608;2022-08-01T15:00:04;4.85;;;1.50;;
73266;SDS011;61495;53.400;7.608;2022-08-01T15:02:31;5.93;;;1.50;;
73266;SDS011;61495;53.400;7.608;2022-08-01T15:04:56;5.03;;;1.70;;
73266;SDS011;61495;53.400;7.608;2022-08-01T15:07:22;6.18;;;1.45;;
73266;SDS011;61495;53.400;7.608;2022-08-01T15:09:47;5.90;;;1.80;;
73266;SDS011;61495;53.400;7.608;2022-08-01T15:12:13;5.63;;;1.80;;
73266;SDS011;61495;53.400;7.608;2022-08-01T15:14:38;3.97;;;1.65;;
73266;SDS011;61495;53.400;7.608;2022-08-01T15:17:13;5.18;;;1.45;;
73266;SDS011;61495;53.400;7.608;2022-08-01T15:19:39;5.18;;;1.60;;
73266;SDS011;61495;53.400;7.608;2022-08-01T15:22:04;4.65;;;1.58;;
73266;SDS011;61495;53.400;7.608;2022-08-01T15:24:30;5.53;;;1.90;;
73266;SDS011;61495;53.400;7.608;2022-08-01T15:26:56;7.03;;;1.83;;
73266;SDS011;61495;53.400;7.608;2022-08-01T15:29:21;6.38;;;1.67;;
73266;SDS011;61495;53.400;7.608;2022-08-01T15:31:46;3.80;;;1.55;;
73266;SDS011;61495;53.400;7.608;2022-08-01T15:34:12;4.47;;;1.90;;